sensor_id;sensor_type;location;lat;lon;timestamp;P1;durP1;ratioP1;P2;durP2;ratioP2
23995;SDS011;12207;50.076;8.848;2022-07-11T00:00:08;118.57;;;6.05;;
23995;SDS011;12207;50.076;8.848;2022-07-11T00:05:08;126.72;;;6.32;;
23995;SDS011;12207;50.076;8.848;2022-07-11T00:07:36;144.40;;;7.13;;
23995;SDS011;12207;50.076;8.848;2022-07-11T00:10:03;164.57;;;8.35;;
23995;SDS011;12207;50.076;8.848;2022-07-11T00:12:30;143.45;;;7.10;;
23995;SDS011;12207;50.076;8.848;2022-07-11T00:14:57;134.60;;;6.72;;
23995;SDS011;12207;50.076;8.848;2022-07-11T00:17:24;141.23;;;7.00;;
23995;SDS011;12207;50.076;8.848;2022-07-11T00:19:50;130.30;;;6.38;;
23995;SDS011;12207;50.076;8.848;2022-07-11T00:22:17;130.00;;;6.47;;
23995;SDS011;12207;50.076;8.848;2022-07-11T00:24:44;134.15;;;6.57;;
23995;SDS011;12207;50.076;8.848;2022-07-11T00:27:10;182.43;;;8.88;;
23995;SDS011;12207;50.076;8.848;2022-07-11T00:29:39;139.40;;;6.95;;
23995;SDS011;12207;50.076;8.848;2022-07-11T00:32:06;140.13;;;6.90;;
23995;SDS011;12207;50.076;8.848;2022-07-11T00:34:33;129.95;;;6.50;;
23995;SDS011;12207;50.076;8.848;2022-07-11T00:37:00;145.68;;;7.28;;
23995;SDS011;12207;50.076;8.848;2022-07-11T00:39:26;135.15;;;6.72;;
23995;SDS011;12207;50.076;8.848;2022-07-11T00:41:53;116.85;;;5.80;;
23995;SDS011;12207;50.076;8.848;2022-07-11T00:44:20;149.75;;;7.57;;
23995;SDS011;12207;50.076;8.848;2022-07-11T00:46:46;139.63;;;6.93;;
23995;SDS011;12207;50.076;8.848;2022-07-11T00:49:13;128.80;;;6.47;;
23995;SDS011;12207;50.076;8.848;2022-07-11T00:51:40;149.90;;;7.60;;
23995;SDS011;12207;50.076;8.848;2022-07-11T00:54:07;165.68;;;8.48;;
23995;SDS011;12207;50.076;8.848;2022-07-11T00:56:36;149.45;;;7.47;;
23995;SDS011;12207;50.076;8.848;2022-07-11T00:59:03;146.00;;;7.32;;
23995;SDS011;12207;50.076;8.848;2022-07-11T01:01:30;129.40;;;6.40;;
23995;SDS011;12207;50.076;8.848;2022-07-11T01:03:59;117.50;;;5.85;;
23995;SDS011;12207;50.076;8.848;2022-07-11T01:06:27;125.15;;;6.35;;
23995;SDS011;12207;50.076;8.848;2022-07-11T01:08:54;134.77;;;6.63;;
23995;SDS011;12207;50.076;8.848;2022-07-11T01:11:21;121.57;;;6.10;;
23995;SDS011;12207;50.076;8.848;2022-07-11T01:13:48;107.65;;;5.28;;
23995;SDS011;12207;50.076;8.848;2022-07-11T01:16:16;146.73;;;7.18;;
23995;SDS011;12207;50.076;8.848;2022-07-11T01:18:44;158.38;;;7.72;;
23995;SDS011;12207;50.076;8.848;2022-07-11T01:23:48;144.50;;;7.20;;
23995;SDS011;12207;50.076;8.848;2022-07-11T01:26:16;138.10;;;6.82;;
23995;SDS011;12207;50.076;8.848;2022-07-11T01:28:44;133.20;;;6.63;;
23995;SDS011;12207;50.076;8.848;2022-07-11T01:31:11;143.70;;;7.13;;
23995;SDS011;12207;50.076;8.848;2022-07-11T01:33:38;136.77;;;6.72;;
23995;SDS011;12207;50.076;8.848;2022-07-11T01:36:06;131.82;;;6.50;;
23995;SDS011;12207;50.076;8.848;2022-07-11T01:38:33;157.73;;;7.78;;
23995;SDS011;12207;50.076;8.848;2022-07-11T01:41:00;114.75;;;5.72;;
23995;SDS011;12207;50.076;8.848;2022-07-11T01:43:28;119.10;;;5.82;;
23995;SDS011;12207;50.076;8.848;2022-07-11T01:45:56;159.70;;;7.85;;
23995;SDS011;12207;50.076;8.848;2022-07-11T01:48:23;129.93;;;6.53;;
23995;SDS011;12207;50.076;8.848;2022-07-11T01:50:49;154.48;;;7.82;;
23995;SDS011;12207;50.076;8.848;2022-07-11T01:53:16;128.20;;;6.38;;
23995;SDS011;12207;50.076;8.848;2022-07-11T01:55:43;144.80;;;7.18;;
23995;SDS011;12207;50.076;8.848;2022-07-11T01:58:10;144.70;;;7.20;;
23995;SDS011;12207;50.076;8.848;2022-07-11T02:00:37;170.40;;;8.70;;
23995;SDS011;12207;50.076;8.848;2022-07-11T02:03:03;136.23;;;6.80;;
23995;SDS011;12207;50.076;8.848;2022-07-11T02:05:30;134.98;;;6.63;;
23995;SDS011;12207;50.076;8.848;2022-07-11T02:07:57;147.25;;;7.28;;
23995;SDS011;12207;50.076;8.848;2022-07-11T02:13:07;144.25;;;7.10;;
23995;SDS011;12207;50.076;8.848;2022-07-11T02:15:35;139.38;;;6.78;;
23995;SDS011;12207;50.076;8.848;2022-07-11T02:18:02;138.27;;;6.82;;
23995;SDS011;12207;50.076;8.848;2022-07-11T02:20:29;172.05;;;8.85;;
23995;SDS011;12207;50.076;8.848;2022-07-11T02:22:55;129.43;;;6.50;;
23995;SDS011;12207;50.076;8.848;2022-07-11T02:25:24;144.77;;;7.03;;
23995;SDS011;12207;50.076;8.848;2022-07-11T02:27:50;124.43;;;6.38;;
23995;SDS011;12207;50.076;8.848;2022-07-11T02:30:17;147.77;;;7.22;;
23995;SDS011;12207;50.076;8.848;2022-07-11T02:32:44;143.73;;;7.07;;
23995;SDS011;12207;50.076;8.848;2022-07-11T02:35:11;147.65;;;7.57;;
23995;SDS011;12207;50.076;8.848;2022-07-11T02:37:37;138.98;;;6.88;;
23995;SDS011;12207;50.076;8.848;2022-07-11T02:40:05;127.47;;;6.30;;
23995;SDS011;12207;50.076;8.848;2022-07-11T02:42:32;136.43;;;6.80;;
23995;SDS011;12207;50.076;8.848;2022-07-11T02:44:59;133.65;;;6.63;;
23995;SDS011;12207;50.076;8.848;2022-07-11T02:47:25;135.90;;;6.57;;
23995;SDS011;12207;50.076;8.848;2022-07-11T02:49:52;180.85;;;9.10;;
23995;SDS011;12207;50.076;8.848;2022-07-11T02:52:19;135.38;;;6.85;;
23995;SDS011;12207;50.076;8.848;2022-07-11T02:54:45;151.13;;;7.63;;
23995;SDS011;12207;50.076;8.848;2022-07-11T02:57:12;169.70;;;8.43;;
23995;SDS011;12207;50.076;8.848;2022-07-11T02:59:39;127.03;;;6.30;;
23995;SDS011;12207;50.076;8.848;2022-07-11T03:02:06;115.22;;;5.60;;
23995;SDS011;12207;50.076;8.848;2022-07-11T03:04:33;128.98;;;6.43;;
23995;SDS011;12207;50.076;8.848;2022-07-11T03:07:00;132.82;;;6.45;;
23995;SDS011;12207;50.076;8.848;2022-07-11T03:09:26;117.78;;;5.80;;
23995;SDS011;12207;50.076;8.848;2022-07-11T03:11:53;136.10;;;6.82;;
23995;SDS011;12207;50.076;8.848;2022-07-11T03:14:20;132.35;;;6.57;;
23995;SDS011;12207;50.076;8.848;2022-07-11T03:16:46;148.45;;;7.32;;
23995;SDS011;12207;50.076;8.848;2022-07-11T03:19:13;130.90;;;6.50;;
23995;SDS011;12207;50.076;8.848;2022-07-11T03:21:40;140.38;;;7.10;;
23995;SDS011;12207;50.076;8.848;2022-07-11T03:24:06;147.15;;;7.35;;
23995;SDS011;12207;50.076;8.848;2022-07-11T03:26:33;146.23;;;7.18;;
23995;SDS011;12207;50.076;8.848;2022-07-11T03:29:00;153.00;;;7.43;;
23995;SDS011;12207;50.076;8.848;2022-07-11T03:31:26;162.43;;;8.07;;
23995;SDS011;12207;50.076;8.848;2022-07-11T03:33:54;142.40;;;7.10;;
23995;SDS011;12207;50.076;8.848;2022-07-11T03:36:21;140.57;;;6.88;;
23995;SDS011;12207;50.076;8.848;2022-07-11T03:38:48;129.02;;;6.43;;
23995;SDS011;12207;50.076;8.848;2022-07-11T03:41:15;144.40;;;7.18;;
23995;SDS011;12207;50.076;8.848;2022-07-11T03:43:41;151.23;;;7.55;;
23995;SDS011;12207;50.076;8.848;2022-07-11T03:46:08;127.53;;;6.35;;
23995;SDS011;12207;50.076;8.848;2022-07-11T03:48:35;157.80;;;7.78;;
23995;SDS011;12207;50.076;8.848;2022-07-11T03:51:02;134.27;;;6.57;;
23995;SDS011;12207;50.076;8.848;2022-07-11T03:53:28;137.20;;;6.70;;
23995;SDS011;12207;50.076;8.848;2022-07-11T03:55:55;111.60;;;5.55;;
23995;SDS011;12207;50.076;8.848;2022-07-11T03:58:22;150.82;;;7.40;;
23995;SDS011;12207;50.076;8.848;2022-07-11T04:00:49;151.88;;;7.57;;
23995;SDS011;12207;50.076;8.848;2022-07-11T04:03:15;139.00;;;7.13;;
23995;SDS011;12207;50.076;8.848;2022-07-11T04:05:42;136.95;;;6.68;;
23995;SDS011;12207;50.076;8.848;2022-07-11T04:08:08;153.25;;;7.70;;
23995;SDS011;12207;50.076;8.848;2022-07-11T04:10:35;169.77;;;8.77;;
23995;SDS011;12207;50.076;8.848;2022-07-11T04:13:02;138.63;;;6.90;;
23995;SDS011;12207;50.076;8.848;2022-07-11T04:15:29;146.50;;;7.22;;
23995;SDS011;12207;50.076;8.848;2022-07-11T04:17:55;137.23;;;6.82;;
23995;SDS011;12207;50.076;8.848;2022-07-11T04:20:22;159.95;;;8.05;;
23995;SDS011;12207;50.076;8.848;2022-07-11T04:22:49;120.72;;;6.13;;
23995;SDS011;12207;50.076;8.848;2022-07-11T04:25:16;132.90;;;6.60;;
23995;SDS011;12207;50.076;8.848;2022-07-11T04:27:42;150.70;;;7.55;;
23995;SDS011;12207;50.076;8.848;2022-07-11T04:30:09;142.18;;;6.97;;
23995;SDS011;12207;50.076;8.848;2022-07-11T04:32:36;141.73;;;6.90;;
23995;SDS011;12207;50.076;8.848;2022-07-11T04:35:03;145.68;;;7.45;;
23995;SDS011;12207;50.076;8.848;2022-07-11T04:37:30;88.90;;;4.30;;
23995;SDS011;12207;50.076;8.848;2022-07-11T04:39:57;125.03;;;6.25;;
23995;SDS011;12207;50.076;8.848;2022-07-11T04:42:23;170.38;;;8.50;;
23995;SDS011;12207;50.076;8.848;2022-07-11T04:44:50;120.13;;;5.97;;
23995;SDS011;12207;50.076;8.848;2022-07-11T04:47:17;152.82;;;7.57;;
23995;SDS011;12207;50.076;8.848;2022-07-11T04:49:44;136.50;;;6.90;;
23995;SDS011;12207;50.076;8.848;2022-07-11T04:52:12;146.38;;;7.32;;
23995;SDS011;12207;50.076;8.848;2022-07-11T04:54:39;125.20;;;6.57;;
23995;SDS011;12207;50.076;8.848;2022-07-11T04:57:06;159.23;;;8.05;;
23995;SDS011;12207;50.076;8.848;2022-07-11T04:59:33;141.75;;;7.18;;
23995;SDS011;12207;50.076;8.848;2022-07-11T05:01:59;128.25;;;6.53;;
23995;SDS011;12207;50.076;8.848;2022-07-11T05:04:26;137.02;;;7.05;;
23995;SDS011;12207;50.076;8.848;2022-07-11T05:06:53;147.38;;;7.45;;
23995;SDS011;12207;50.076;8.848;2022-07-11T05:09:19;146.55;;;7.40;;
23995;SDS011;12207;50.076;8.848;2022-07-11T05:11:46;129.18;;;6.65;;
23995;SDS011;12207;50.076;8.848;2022-07-11T05:14:13;156.63;;;8.23;;
23995;SDS011;12207;50.076;8.848;2022-07-11T05:16:40;124.53;;;6.45;;
23995;SDS011;12207;50.076;8.848;2022-07-11T05:19:07;145.80;;;7.68;;
23995;SDS011;12207;50.076;8.848;2022-07-11T05:21:34;140.80;;;7.35;;
23995;SDS011;12207;50.076;8.848;2022-07-11T05:24:01;132.05;;;6.80;;
23995;SDS011;12207;50.076;8.848;2022-07-11T05:26:27;138.73;;;7.15;;
23995;SDS011;12207;50.076;8.848;2022-07-11T05:28:54;139.05;;;7.18;;
23995;SDS011;12207;50.076;8.848;2022-07-11T05:31:21;137.05;;;7.03;;
23995;SDS011;12207;50.076;8.848;2022-07-11T05:33:48;134.45;;;7.03;;
23995;SDS011;12207;50.076;8.848;2022-07-11T05:36:14;160.88;;;8.45;;
23995;SDS011;12207;50.076;8.848;2022-07-11T05:38:41;121.03;;;6.28;;
23995;SDS011;12207;50.076;8.848;2022-07-11T05:41:08;138.98;;;7.53;;
23995;SDS011;12207;50.076;8.848;2022-07-11T05:43:35;143.40;;;7.72;;
23995;SDS011;12207;50.076;8.848;2022-07-11T05:46:04;112.00;;;6.70;;
23995;SDS011;12207;50.076;8.848;2022-07-11T05:48:31;139.45;;;7.18;;
23995;SDS011;12207;50.076;8.848;2022-07-11T05:50:58;140.15;;;7.90;;
23995;SDS011;12207;50.076;8.848;2022-07-11T05:53:25;120.03;;;6.35;;
23995;SDS011;12207;50.076;8.848;2022-07-11T05:55:51;136.75;;;7.15;;
23995;SDS011;12207;50.076;8.848;2022-07-11T05:58:18;169.18;;;8.93;;
23995;SDS011;12207;50.076;8.848;2022-07-11T06:00:45;135.75;;;7.22;;
23995;SDS011;12207;50.076;8.848;2022-07-11T06:03:11;162.10;;;8.60;;
23995;SDS011;12207;50.076;8.848;2022-07-11T06:05:38;158.90;;;8.50;;
23995;SDS011;12207;50.076;8.848;2022-07-11T06:08:05;155.10;;;8.32;;
23995;SDS011;12207;50.076;8.848;2022-07-11T06:10:50;141.50;;;8.30;;
23995;SDS011;12207;50.076;8.848;2022-07-11T06:13:17;142.65;;;7.78;;
23995;SDS011;12207;50.076;8.848;2022-07-11T06:15:44;135.85;;;7.25;;
23995;SDS011;12207;50.076;8.848;2022-07-11T06:18:10;137.30;;;7.65;;
23995;SDS011;12207;50.076;8.848;2022-07-11T06:20:37;142.82;;;7.93;;
23995;SDS011;12207;50.076;8.848;2022-07-11T06:23:05;111.65;;;6.00;;
23995;SDS011;12207;50.076;8.848;2022-07-11T06:25:32;110.47;;;6.30;;
23995;SDS011;12207;50.076;8.848;2022-07-11T06:27:59;132.35;;;7.55;;
23995;SDS011;12207;50.076;8.848;2022-07-11T06:30:27;164.35;;;9.80;;
23995;SDS011;12207;50.076;8.848;2022-07-11T06:32:53;141.00;;;8.35;;
23995;SDS011;12207;50.076;8.848;2022-07-11T06:35:20;566.00;;;34.38;;
23995;SDS011;12207;50.076;8.848;2022-07-11T06:37:47;270.20;;;15.15;;
23995;SDS011;12207;50.076;8.848;2022-07-11T06:40:14;275.85;;;16.00;;
23995;SDS011;12207;50.076;8.848;2022-07-11T06:42:43;230.73;;;13.50;;
23995;SDS011;12207;50.076;8.848;2022-07-11T06:45:10;255.35;;;15.05;;
23995;SDS011;12207;50.076;8.848;2022-07-11T06:47:37;215.13;;;13.02;;
23995;SDS011;12207;50.076;8.848;2022-07-11T06:50:03;204.00;;;12.25;;
23995;SDS011;12207;50.076;8.848;2022-07-11T06:52:31;202.55;;;12.27;;
23995;SDS011;12207;50.076;8.848;2022-07-11T06:54:58;224.50;;;13.02;;
23995;SDS011;12207;50.076;8.848;2022-07-11T06:57:25;250.98;;;14.88;;
23995;SDS011;12207;50.076;8.848;2022-07-11T06:59:52;262.10;;;15.25;;
23995;SDS011;12207;50.076;8.848;2022-07-11T07:02:18;281.08;;;16.23;;
23995;SDS011;12207;50.076;8.848;2022-07-11T07:04:45;241.63;;;14.25;;
23995;SDS011;12207;50.076;8.848;2022-07-11T07:07:12;241.85;;;15.02;;
23995;SDS011;12207;50.076;8.848;2022-07-11T07:09:39;222.68;;;13.73;;
23995;SDS011;12207;50.076;8.848;2022-07-11T07:12:06;215.73;;;12.93;;
23995;SDS011;12207;50.076;8.848;2022-07-11T07:14:34;204.80;;;12.73;;
23995;SDS011;12207;50.076;8.848;2022-07-11T07:17:00;219.43;;;13.13;;
23995;SDS011;12207;50.076;8.848;2022-07-11T07:19:27;220.25;;;13.50;;
23995;SDS011;12207;50.076;8.848;2022-07-11T07:21:54;238.68;;;14.48;;
23995;SDS011;12207;50.076;8.848;2022-07-11T07:24:20;279.83;;;17.80;;
23995;SDS011;12207;50.076;8.848;2022-07-11T07:26:47;279.42;;;17.02;;
23995;SDS011;12207;50.076;8.848;2022-07-11T07:29:14;245.48;;;14.85;;
23995;SDS011;12207;50.076;8.848;2022-07-11T07:31:41;234.13;;;14.30;;
23995;SDS011;12207;50.076;8.848;2022-07-11T07:34:08;227.73;;;13.70;;
23995;SDS011;12207;50.076;8.848;2022-07-11T07:36:35;197.68;;;11.80;;
23995;SDS011;12207;50.076;8.848;2022-07-11T07:39:02;191.68;;;11.35;;
23995;SDS011;12207;50.076;8.848;2022-07-11T07:41:29;228.40;;;13.68;;
23995;SDS011;12207;50.076;8.848;2022-07-11T07:43:56;266.73;;;16.00;;
23995;SDS011;12207;50.076;8.848;2022-07-11T07:46:23;278.67;;;16.40;;
23995;SDS011;12207;50.076;8.848;2022-07-11T07:48:49;285.40;;;17.42;;
23995;SDS011;12207;50.076;8.848;2022-07-11T07:51:16;266.77;;;16.92;;
23995;SDS011;12207;50.076;8.848;2022-07-11T07:53:43;277.45;;;17.15;;
23995;SDS011;12207;50.076;8.848;2022-07-11T07:56:10;281.70;;;20.60;;
23995;SDS011;12207;50.076;8.848;2022-07-11T07:58:37;234.80;;;17.83;;
23995;SDS011;12207;50.076;8.848;2022-07-11T08:01:04;209.07;;;15.60;;
23995;SDS011;12207;50.076;8.848;2022-07-11T08:03:50;319.10;;;20.55;;
23995;SDS011;12207;50.076;8.848;2022-07-11T08:06:17;359.50;;;24.05;;
23995;SDS011;12207;50.076;8.848;2022-07-11T08:08:44;289.27;;;20.45;;
23995;SDS011;12207;50.076;8.848;2022-07-11T08:11:11;235.50;;;16.92;;
23995;SDS011;12207;50.076;8.848;2022-07-11T08:13:38;225.93;;;18.90;;
23995;SDS011;12207;50.076;8.848;2022-07-11T08:16:05;251.02;;;20.20;;
23995;SDS011;12207;50.076;8.848;2022-07-11T08:18:33;263.27;;;19.38;;
23995;SDS011;12207;50.076;8.848;2022-07-11T08:21:00;260.67;;;19.63;;
23995;SDS011;12207;50.076;8.848;2022-07-11T08:23:27;230.95;;;17.10;;
23995;SDS011;12207;50.076;8.848;2022-07-11T08:25:54;178.15;;;13.05;;
23995;SDS011;12207;50.076;8.848;2022-07-11T08:28:20;210.63;;;14.35;;
23995;SDS011;12207;50.076;8.848;2022-07-11T08:30:47;205.80;;;15.07;;
23995;SDS011;12207;50.076;8.848;2022-07-11T08:33:14;181.65;;;13.80;;
23995;SDS011;12207;50.076;8.848;2022-07-11T08:35:41;182.25;;;13.75;;
23995;SDS011;12207;50.076;8.848;2022-07-11T08:38:07;185.25;;;14.25;;
23995;SDS011;12207;50.076;8.848;2022-07-11T08:40:34;153.18;;;14.43;;
23995;SDS011;12207;50.076;8.848;2022-07-11T08:43:01;154.32;;;12.35;;
23995;SDS011;12207;50.076;8.848;2022-07-11T08:45:38;163.65;;;13.73;;
23995;SDS011;12207;50.076;8.848;2022-07-11T08:48:04;171.55;;;13.85;;
23995;SDS011;12207;50.076;8.848;2022-07-11T08:50:32;180.40;;;13.63;;
23995;SDS011;12207;50.076;8.848;2022-07-11T08:53:00;155.65;;;14.25;;
23995;SDS011;12207;50.076;8.848;2022-07-11T08:55:30;159.55;;;15.27;;
23995;SDS011;12207;50.076;8.848;2022-07-11T08:57:56;164.02;;;16.80;;
23995;SDS011;12207;50.076;8.848;2022-07-11T09:00:23;179.25;;;21.58;;
23995;SDS011;12207;50.076;8.848;2022-07-11T09:02:50;146.38;;;25.83;;
23995;SDS011;12207;50.076;8.848;2022-07-11T09:05:20;165.32;;;28.88;;
23995;SDS011;12207;50.076;8.848;2022-07-11T09:07:48;189.60;;;27.45;;
23995;SDS011;12207;50.076;8.848;2022-07-11T09:10:16;205.70;;;28.73;;
23995;SDS011;12207;50.076;8.848;2022-07-11T09:18:04;177.65;;;27.95;;
23995;SDS011;12207;50.076;8.848;2022-07-11T09:23:41;170.60;;;20.88;;
23995;SDS011;12207;50.076;8.848;2022-07-11T09:26:30;173.30;;;19.65;;
23995;SDS011;12207;50.076;8.848;2022-07-11T09:29:20;199.35;;;20.52;;
23995;SDS011;12207;50.076;8.848;2022-07-11T09:31:47;161.10;;;15.43;;
23995;SDS011;12207;50.076;8.848;2022-07-11T09:34:15;169.98;;;17.60;;
23995;SDS011;12207;50.076;8.848;2022-07-11T09:36:47;176.15;;;17.98;;
23995;SDS011;12207;50.076;8.848;2022-07-11T09:39:21;150.20;;;15.60;;
23995;SDS011;12207;50.076;8.848;2022-07-11T09:41:52;139.38;;;17.00;;
23995;SDS011;12207;50.076;8.848;2022-07-11T09:44:24;181.35;;;22.27;;
23995;SDS011;12207;50.076;8.848;2022-07-11T09:46:58;173.98;;;24.80;;
23995;SDS011;12207;50.076;8.848;2022-07-11T09:49:32;183.52;;;26.52;;
23995;SDS011;12207;50.076;8.848;2022-07-11T09:52:11;184.68;;;27.70;;
23995;SDS011;12207;50.076;8.848;2022-07-11T09:57:30;161.35;;;35.05;;
23995;SDS011;12207;50.076;8.848;2022-07-11T09:59:57;151.73;;;32.08;;
23995;SDS011;12207;50.076;8.848;2022-07-11T10:02:25;225.57;;;43.00;;
23995;SDS011;12207;50.076;8.848;2022-07-11T10:04:52;146.18;;;31.45;;
23995;SDS011;12207;50.076;8.848;2022-07-11T10:07:19;183.90;;;39.88;;
23995;SDS011;12207;50.076;8.848;2022-07-11T10:09:47;196.02;;;53.75;;
23995;SDS011;12207;50.076;8.848;2022-07-11T10:12:14;199.13;;;67.03;;
23995;SDS011;12207;50.076;8.848;2022-07-11T10:14:41;206.93;;;72.40;;
23995;SDS011;12207;50.076;8.848;2022-07-11T10:17:52;254.82;;;74.25;;
23995;SDS011;12207;50.076;8.848;2022-07-11T10:22:36;198.05;;;49.85;;
23995;SDS011;12207;50.076;8.848;2022-07-11T10:25:31;208.05;;;48.80;;
23995;SDS011;12207;50.076;8.848;2022-07-11T10:28:18;122.60;;;38.90;;
23995;SDS011;12207;50.076;8.848;2022-07-11T10:31:21;167.05;;;43.65;;
23995;SDS011;12207;50.076;8.848;2022-07-11T10:33:59;186.68;;;42.53;;
23995;SDS011;12207;50.076;8.848;2022-07-11T10:36:30;156.70;;;34.55;;
23995;SDS011;12207;50.076;8.848;2022-07-11T10:44:26;190.57;;;36.45;;
23995;SDS011;12207;50.076;8.848;2022-07-11T10:47:30;201.48;;;42.05;;
23995;SDS011;12207;50.076;8.848;2022-07-11T10:49:59;350.27;;;54.15;;
23995;SDS011;12207;50.076;8.848;2022-07-11T10:52:41;219.33;;;39.07;;
23995;SDS011;12207;50.076;8.848;2022-07-11T10:55:23;234.07;;;46.03;;
23995;SDS011;12207;50.076;8.848;2022-07-11T10:58:27;249.90;;;42.65;;
23995;SDS011;12207;50.076;8.848;2022-07-11T11:03:34;352.95;;;46.45;;
23995;SDS011;12207;50.076;8.848;2022-07-11T11:06:00;276.55;;;46.85;;
23995;SDS011;12207;50.076;8.848;2022-07-11T11:11:00;302.08;;;54.40;;
23995;SDS011;12207;50.076;8.848;2022-07-11T11:13:32;336.65;;;59.95;;
23995;SDS011;12207;50.076;8.848;2022-07-11T11:16:37;296.07;;;59.50;;
23995;SDS011;12207;50.076;8.848;2022-07-11T11:18:56;298.40;;;62.37;;
23995;SDS011;12207;50.076;8.848;2022-07-11T11:21:23;312.58;;;64.00;;
23995;SDS011;12207;50.076;8.848;2022-07-11T11:26:40;283.65;;;59.70;;
23995;SDS011;12207;50.076;8.848;2022-07-11T11:29:15;257.80;;;57.92;;
23995;SDS011;12207;50.076;8.848;2022-07-11T11:31:55;287.77;;;61.85;;
23995;SDS011;12207;50.076;8.848;2022-07-11T11:34:25;316.35;;;62.75;;
23995;SDS011;12207;50.076;8.848;2022-07-11T11:36:59;261.38;;;55.00;;
23995;SDS011;12207;50.076;8.848;2022-07-11T11:42:09;327.98;;;62.75;;
23995;SDS011;12207;50.076;8.848;2022-07-11T11:44:52;279.50;;;56.55;;
23995;SDS011;12207;50.076;8.848;2022-07-11T11:47:21;299.60;;;61.30;;
23995;SDS011;12207;50.076;8.848;2022-07-11T11:49:48;296.02;;;64.45;;
23995;SDS011;12207;50.076;8.848;2022-07-11T11:52:15;280.17;;;61.15;;
23995;SDS011;12207;50.076;8.848;2022-07-11T11:54:42;209.77;;;58.88;;
23995;SDS011;12207;50.076;8.848;2022-07-11T11:57:11;229.90;;;60.88;;
23995;SDS011;12207;50.076;8.848;2022-07-11T11:59:39;289.83;;;63.88;;
23995;SDS011;12207;50.076;8.848;2022-07-11T12:02:06;298.88;;;63.13;;
23995;SDS011;12207;50.076;8.848;2022-07-11T12:04:34;362.98;;;60.08;;
23995;SDS011;12207;50.076;8.848;2022-07-11T12:07:02;324.50;;;56.83;;
23995;SDS011;12207;50.076;8.848;2022-07-11T12:09:30;322.48;;;55.33;;
23995;SDS011;12207;50.076;8.848;2022-07-11T12:12:33;267.35;;;43.67;;
23995;SDS011;12207;50.076;8.848;2022-07-11T12:15:30;250.73;;;46.60;;
23995;SDS011;12207;50.076;8.848;2022-07-11T12:18:00;350.77;;;54.30;;
23995;SDS011;12207;50.076;8.848;2022-07-11T12:20:34;307.65;;;59.08;;
23995;SDS011;12207;50.076;8.848;2022-07-11T12:23:19;311.48;;;60.88;;
23995;SDS011;12207;50.076;8.848;2022-07-11T12:25:49;271.17;;;60.58;;
23995;SDS011;12207;50.076;8.848;2022-07-11T12:28:17;289.45;;;64.30;;
23995;SDS011;12207;50.076;8.848;2022-07-11T12:30:44;283.98;;;66.32;;
23995;SDS011;12207;50.076;8.848;2022-07-11T12:33:12;235.35;;;58.55;;
23995;SDS011;12207;50.076;8.848;2022-07-11T12:35:59;279.05;;;72.50;;
23995;SDS011;12207;50.076;8.848;2022-07-11T12:38:46;322.20;;;77.38;;
23995;SDS011;12207;50.076;8.848;2022-07-11T12:41:17;268.27;;;59.30;;
23995;SDS011;12207;50.076;8.848;2022-07-11T12:43:46;387.75;;;72.82;;
23995;SDS011;12207;50.076;8.848;2022-07-11T12:46:34;324.20;;;65.85;;
23995;SDS011;12207;50.076;8.848;2022-07-11T12:49:03;318.83;;;69.60;;
23995;SDS011;12207;50.076;8.848;2022-07-11T12:51:34;296.27;;;67.13;;
23995;SDS011;12207;50.076;8.848;2022-07-11T12:54:06;316.17;;;65.72;;
23995;SDS011;12207;50.076;8.848;2022-07-11T12:56:34;295.85;;;70.25;;
23995;SDS011;12207;50.076;8.848;2022-07-11T12:59:02;338.63;;;79.28;;
23995;SDS011;12207;50.076;8.848;2022-07-11T13:01:30;341.40;;;91.85;;
23995;SDS011;12207;50.076;8.848;2022-07-11T13:03:58;334.38;;;94.75;;
23995;SDS011;12207;50.076;8.848;2022-07-11T13:06:25;288.27;;;85.70;;
23995;SDS011;12207;50.076;8.848;2022-07-11T13:09:13;258.67;;;69.28;;
23995;SDS011;12207;50.076;8.848;2022-07-11T13:11:43;227.15;;;66.78;;
23995;SDS011;12207;50.076;8.848;2022-07-11T13:14:09;266.42;;;59.50;;
23995;SDS011;12207;50.076;8.848;2022-07-11T13:16:55;335.20;;;68.43;;
23995;SDS011;12207;50.076;8.848;2022-07-11T13:19:22;329.15;;;65.60;;
23995;SDS011;12207;50.076;8.848;2022-07-11T13:21:48;312.75;;;67.88;;
23995;SDS011;12207;50.076;8.848;2022-07-11T13:24:15;283.42;;;67.63;;
23995;SDS011;12207;50.076;8.848;2022-07-11T13:26:42;266.05;;;67.05;;
23995;SDS011;12207;50.076;8.848;2022-07-11T13:29:09;287.83;;;77.50;;
23995;SDS011;12207;50.076;8.848;2022-07-11T13:31:35;312.70;;;83.38;;
23995;SDS011;12207;50.076;8.848;2022-07-11T13:34:02;298.73;;;82.47;;
23995;SDS011;12207;50.076;8.848;2022-07-11T13:36:29;369.80;;;81.20;;
23995;SDS011;12207;50.076;8.848;2022-07-11T13:38:56;357.60;;;91.72;;
23995;SDS011;12207;50.076;8.848;2022-07-11T13:41:22;337.45;;;92.18;;
23995;SDS011;12207;50.076;8.848;2022-07-11T13:43:49;343.45;;;98.90;;
23995;SDS011;12207;50.076;8.848;2022-07-11T13:46:16;289.60;;;106.90;;
23995;SDS011;12207;50.076;8.848;2022-07-11T13:48:44;284.90;;;106.05;;
23995;SDS011;12207;50.076;8.848;2022-07-11T13:51:11;274.13;;;99.63;;
23995;SDS011;12207;50.076;8.848;2022-07-11T13:53:38;439.70;;;115.70;;
23995;SDS011;12207;50.076;8.848;2022-07-11T13:56:05;336.67;;;88.40;;
23995;SDS011;12207;50.076;8.848;2022-07-11T13:58:32;302.15;;;89.05;;
23995;SDS011;12207;50.076;8.848;2022-07-11T14:00:59;320.98;;;85.03;;
23995;SDS011;12207;50.076;8.848;2022-07-11T14:03:26;357.25;;;86.18;;
23995;SDS011;12207;50.076;8.848;2022-07-11T14:05:53;278.20;;;72.53;;
23995;SDS011;12207;50.076;8.848;2022-07-11T14:08:20;294.25;;;74.70;;
23995;SDS011;12207;50.076;8.848;2022-07-11T14:10:47;282.38;;;68.75;;
23995;SDS011;12207;50.076;8.848;2022-07-11T14:13:14;301.42;;;82.47;;
23995;SDS011;12207;50.076;8.848;2022-07-11T14:15:41;281.45;;;73.65;;
23995;SDS011;12207;50.076;8.848;2022-07-11T14:18:08;300.13;;;78.32;;
23995;SDS011;12207;50.076;8.848;2022-07-11T14:20:34;400.25;;;72.28;;
23995;SDS011;12207;50.076;8.848;2022-07-11T14:23:01;301.95;;;72.18;;
23995;SDS011;12207;50.076;8.848;2022-07-11T14:25:28;321.13;;;64.22;;
23995;SDS011;12207;50.076;8.848;2022-07-11T14:27:55;295.27;;;63.65;;
23995;SDS011;12207;50.076;8.848;2022-07-11T14:30:22;339.42;;;64.45;;
23995;SDS011;12207;50.076;8.848;2022-07-11T14:32:49;325.58;;;72.60;;
23995;SDS011;12207;50.076;8.848;2022-07-11T14:35:16;305.35;;;73.40;;
23995;SDS011;12207;50.076;8.848;2022-07-11T14:37:43;249.65;;;74.43;;
23995;SDS011;12207;50.076;8.848;2022-07-11T14:40:10;283.02;;;71.07;;
23995;SDS011;12207;50.076;8.848;2022-07-11T14:42:37;285.85;;;80.38;;
23995;SDS011;12207;50.076;8.848;2022-07-11T14:45:04;345.80;;;89.40;;
23995;SDS011;12207;50.076;8.848;2022-07-11T14:47:32;353.40;;;79.60;;
23995;SDS011;12207;50.076;8.848;2022-07-11T14:49:59;322.23;;;84.22;;
23995;SDS011;12207;50.076;8.848;2022-07-11T14:52:26;305.30;;;80.43;;
23995;SDS011;12207;50.076;8.848;2022-07-11T14:54:53;334.27;;;82.70;;
23995;SDS011;12207;50.076;8.848;2022-07-11T14:57:20;293.20;;;72.20;;
23995;SDS011;12207;50.076;8.848;2022-07-11T14:59:46;290.20;;;69.63;;